createdAt,value
2019-02-20T07:36:11.567Z,101164.46
2019-02-20T07:38:43.140Z,101166.41
2019-02-20T07:41:14.503Z,101168.23
2019-02-20T07:43:44.907Z,101170.03
2019-02-20T07:46:15.292Z,101169.17
2019-02-20T07:48:45.721Z,101179.80
2019-02-20T07:51:16.272Z,101177.98
2019-02-20T07:53:46.607Z,101182.39
2019-02-20T07:56:17.155Z,101191.69
2019-02-20T07:58:47.684Z,101196.98
2019-02-20T08:03:29.765Z,101214.23
2019-02-20T08:06:03.339Z,101235.47
2019-02-20T08:08:33.885Z,101232.25
2019-02-20T08:11:05.850Z,101245.52
2019-02-20T08:13:39.313Z,101251.78
2019-02-20T08:16:11.321Z,101255.61
2019-02-20T08:18:44.037Z,101255.81
2019-02-20T08:21:15.674Z,101256.44
2019-02-20T08:23:46.187Z,101263.22
2019-02-20T08:26:16.602Z,101264.73
2019-02-20T08:28:47.061Z,101258.48
2019-02-20T08:31:17.435Z,101262.15
2019-02-20T08:33:48.017Z,101260.37
2019-02-20T08:36:18.369Z,101268.23
2019-02-20T08:38:48.947Z,101288.56
2019-02-20T08:41:19.447Z,101297.91
2019-02-20T08:43:49.940Z,101282.37
2019-02-20T08:46:20.361Z,101279.54
2019-02-20T08:48:50.891Z,101279.34
2019-02-20T08:51:21.377Z,101291.08
2019-02-20T08:53:51.843Z,101286.41
2019-02-20T08:56:22.269Z,101278.04
2019-02-20T08:58:53.216Z,101294.11
2019-02-20T09:01:24.009Z,101293.80
2019-02-20T09:03:54.473Z,101297.66
2019-02-20T09:06:27.907Z,101305.30
2019-02-20T09:08:58.420Z,101306.74
2019-02-20T09:11:28.755Z,101306.90
2019-02-20T09:13:59.122Z,101300.63
2019-02-20T09:16:29.617Z,101304.23
2019-02-20T09:19:00.003Z,101304.28
2019-02-20T09:21:30.357Z,101307.30
2019-02-20T09:24:00.720Z,101309.91
2019-02-20T09:26:31.073Z,101320.16
2019-02-20T09:29:01.526Z,101314.72
2019-02-20T09:31:32.009Z,101319.34
2019-02-20T09:34:02.667Z,101330.23
2019-02-20T09:36:32.990Z,101321.83
2019-02-20T09:39:22.960Z,101323.66
2019-02-20T09:41:53.365Z,101315.58
2019-02-20T09:44:24.181Z,101314.06
2019-02-20T09:46:56.058Z,101317.07
2019-02-20T09:49:26.416Z,101325.03
2019-02-20T09:51:56.829Z,101322.72
2019-02-20T09:54:27.351Z,101319.88
2019-02-20T09:56:57.782Z,101316.70
2019-02-20T09:59:28.165Z,101326.68
2019-02-20T10:01:58.496Z,101307.34
2019-02-20T10:04:28.948Z,101333.58
2019-02-20T10:06:59.337Z,101321.39
2019-02-20T10:09:29.713Z,101313.75
2019-02-20T10:12:00.087Z,101328.48
2019-02-20T10:14:30.628Z,101310.97
2019-02-20T10:17:00.967Z,101334.48
2019-02-20T10:19:31.340Z,101324.05
2019-02-20T10:22:01.742Z,101333.30
2019-02-20T10:24:32.191Z,101318.95
2019-02-20T10:27:02.678Z,101328.26
2019-02-20T10:29:33.171Z,101327.64
2019-02-20T10:32:03.882Z,101332.06
2019-02-20T10:34:34.884Z,101324.04
2019-02-20T10:37:05.386Z,101324.13
2019-02-20T10:39:35.930Z,101333.22
2019-02-20T10:42:06.341Z,101339.30
2019-02-20T10:44:36.801Z,101334.93
2019-02-20T10:47:08.203Z,101337.45
2019-02-20T10:49:38.860Z,101333.22
2019-02-20T10:52:09.223Z,101331.86
2019-02-20T10:54:39.623Z,101346.95
2019-02-20T10:57:10.056Z,101347.52
2019-02-20T10:59:40.514Z,101339.55
2019-02-20T11:02:10.933Z,101343.81
2019-02-20T11:04:41.384Z,101342.16
2019-02-20T11:07:11.740Z,101354.12
2019-02-20T11:09:42.201Z,101343.53
2019-02-20T11:12:13.635Z,101336.48
2019-02-20T11:14:44.083Z,101363.19
2019-02-20T11:17:14.508Z,101369.78
2019-02-20T11:19:44.892Z,101359.66
2019-02-20T11:22:15.427Z,101351.63
2019-02-20T11:24:45.809Z,101361.95
2019-02-20T11:27:16.254Z,101369.06
2019-02-20T11:29:46.633Z,101360.70
2019-02-20T11:32:16.980Z,101371.09
2019-02-20T11:34:47.374Z,101362.73
2019-02-20T11:37:17.791Z,101372.94
2019-02-20T11:39:48.168Z,101370.57
2019-02-20T11:42:18.507Z,101376.55
2019-02-20T11:44:48.919Z,101373.36
2019-02-20T11:47:19.323Z,101376.17
2019-02-20T11:49:49.702Z,101373.81
2019-02-20T11:52:20.050Z,101378.48
2019-02-20T11:54:50.430Z,101384.09
2019-02-20T11:57:20.854Z,101384.22
2019-02-20T11:59:51.315Z,101385.05
2019-02-20T12:02:21.653Z,101385.41
2019-02-20T12:04:52.038Z,101386.48
2019-02-20T12:07:22.374Z,101390.20
2019-02-20T12:09:54.451Z,101389.11
2019-02-20T12:12:25.978Z,101385.27
2019-02-20T12:14:56.358Z,101376.00
2019-02-20T12:17:26.700Z,101379.00
2019-02-20T12:19:57.087Z,101390.10
2019-02-20T12:22:27.966Z,101383.36
2019-02-20T12:24:59.355Z,101391.71
2019-02-20T12:27:29.763Z,101389.77
2019-02-20T12:30:00.269Z,101385.59
2019-02-20T12:32:31.032Z,101389.19
2019-02-20T12:35:02.494Z,101393.15
2019-02-20T12:37:32.907Z,101387.11
2019-02-20T12:40:05.057Z,101387.33
2019-02-20T12:42:35.665Z,101393.36
2019-02-20T12:45:07.588Z,101398.77
2019-02-20T12:47:37.935Z,101407.45
2019-02-20T12:50:11.708Z,101400.23
2019-02-20T12:52:42.062Z,101397.73
2019-02-20T12:55:12.513Z,101405.93
2019-02-20T12:57:43.008Z,101404.16
2019-02-20T13:00:18.266Z,101413.08
2019-02-20T13:02:48.666Z,101411.08
2019-02-20T13:05:19.268Z,101407.45
2019-02-20T13:07:49.681Z,101410.94
2019-02-20T13:10:20.073Z,101414.30
2019-02-20T13:12:50.588Z,101419.39
2019-02-20T13:15:21.100Z,101404.81
2019-02-20T13:17:51.571Z,101413.80
2019-02-20T13:20:22.289Z,101404.73
2019-02-20T13:23:02.698Z,101418.62
2019-02-20T13:25:35.692Z,101409.16
2019-02-20T13:28:06.021Z,101409.38
2019-02-20T13:30:36.485Z,101410.02
2019-02-20T13:33:07.187Z,101415.11
2019-02-20T13:35:37.644Z,101412.81
2019-02-20T13:38:08.214Z,101415.27
2019-02-20T13:40:38.961Z,101414.41
2019-02-20T13:43:09.313Z,101419.27
2019-02-20T13:45:39.703Z,101421.39
2019-02-20T13:48:10.186Z,101421.59
2019-02-20T13:50:40.639Z,101423.59
2019-02-20T13:53:11.236Z,101426.34
2019-02-20T13:55:41.664Z,101427.98
2019-02-20T13:58:12.086Z,101431.10
2019-02-20T14:00:42.455Z,101433.95
2019-02-20T14:03:13.287Z,101430.27
2019-02-20T14:05:43.834Z,101441.02
2019-02-20T14:08:14.746Z,101435.46
2019-02-20T14:10:45.209Z,101442.14
2019-02-20T14:13:15.619Z,101446.30
2019-02-20T14:15:46.341Z,101443.61
2019-02-20T14:18:17.012Z,101439.77
2019-02-20T14:20:47.383Z,101440.13
2019-02-20T14:23:17.995Z,101442.41
2019-02-20T14:25:48.433Z,101448.18
2019-02-20T14:28:18.832Z,101443.20
2019-02-20T14:30:49.524Z,101453.87
2019-02-20T14:33:19.873Z,101446.42
2019-02-20T14:35:50.657Z,101445.27
2019-02-20T14:38:21.059Z,101446.35
2019-02-20T14:40:51.436Z,101450.28
2019-02-20T14:43:22.923Z,101454.57
2019-02-20T14:45:53.355Z,101455.31
2019-02-20T14:48:23.765Z,101463.45
2019-02-20T14:50:54.224Z,101463.00
2019-02-20T14:53:24.561Z,101467.98
2019-02-20T14:55:54.949Z,101473.23
2019-02-20T14:58:27.385Z,101467.39
2019-02-20T15:00:57.889Z,101467.39
2019-02-20T15:03:28.232Z,101465.86
2019-02-20T15:05:58.885Z,101466.42
2019-02-20T15:08:29.286Z,101468.90
2019-02-20T15:10:59.745Z,101469.14
2019-02-20T15:13:30.145Z,101470.89
2019-02-20T15:16:00.598Z,101473.91
2019-02-20T15:18:31.009Z,101471.98
2019-02-20T15:21:02.683Z,101471.81
2019-02-20T15:23:33.095Z,101470.59
2019-02-20T15:26:03.750Z,101473.52
2019-02-20T15:28:34.297Z,101471.50
2019-02-20T15:31:04.752Z,101476.13
2019-02-20T15:33:35.455Z,101481.86
2019-02-20T15:36:05.841Z,101472.73
2019-02-20T15:38:36.260Z,101474.59
2019-02-20T15:41:06.635Z,101475.66
2019-02-20T15:43:37.060Z,101479.72
2019-02-20T15:46:07.443Z,101484.30
2019-02-20T15:48:37.858Z,101483.97
2019-02-20T15:51:08.310Z,101488.19
2019-02-20T15:53:38.660Z,101486.21
2019-02-20T15:56:09.041Z,101489.00
2019-02-20T15:58:39.545Z,101493.85
2019-02-20T16:01:11.554Z,101487.09
2019-02-20T16:03:42.240Z,101495.48
2019-02-20T16:06:12.622Z,101496.84
2019-02-20T16:08:43.363Z,101502.11
2019-02-20T16:11:13.763Z,101507.46
2019-02-20T16:13:45.221Z,101511.51
2019-02-20T16:16:15.674Z,101508.05
2019-02-20T16:18:46.088Z,101510.56
2019-02-20T16:21:16.528Z,101514.39
2019-02-20T16:24:20.955Z,101510.70
2019-02-20T16:26:51.910Z,101515.52
2019-02-20T16:29:23.340Z,101520.08
2019-02-20T16:31:53.878Z,101525.88
2019-02-20T16:34:25.533Z,101530.19
2019-02-20T16:36:58.009Z,101531.57
2019-02-20T16:39:28.311Z,101531.39
2019-02-20T16:41:58.734Z,101537.08
2019-02-20T16:44:29.517Z,101537.47
2019-02-20T16:46:59.975Z,101540.59
2019-02-20T16:49:30.332Z,101543.59
2019-02-20T16:52:00.745Z,101539.20
2019-02-20T16:54:31.175Z,101543.98
2019-02-20T16:57:01.653Z,101553.18
2019-02-20T16:59:32.083Z,101550.80
2019-02-20T17:02:02.540Z,101557.91
2019-02-20T17:04:32.967Z,101558.61
2019-02-20T17:07:16.305Z,101561.12
2019-02-20T17:09:52.088Z,101565.91
2019-02-20T17:12:22.798Z,101569.73
2019-02-20T17:14:53.407Z,101573.16
2019-02-20T17:17:25.265Z,101570.86
2019-02-20T17:19:55.748Z,101566.95
2019-02-20T17:22:26.465Z,101562.17
2019-02-20T17:24:56.890Z,101576.37
2019-02-20T17:27:27.567Z,101572.29
2019-02-20T17:29:58.006Z,101579.36
2019-02-20T17:32:28.396Z,101572.25
2019-02-20T17:34:58.818Z,101573.45
2019-02-20T17:37:29.384Z,101577.19
2019-02-20T17:39:59.809Z,101574.83
2019-02-20T17:42:30.326Z,101578.65
2019-02-20T17:45:00.752Z,101584.08
2019-02-20T17:47:31.270Z,101583.08
2019-02-20T17:50:02.101Z,101582.77
2019-02-20T17:52:32.632Z,101585.94
2019-02-20T17:55:03.176Z,101588.85
2019-02-20T17:57:33.780Z,101589.28
2019-02-20T18:00:05.501Z,101591.70
2019-02-20T18:02:36.658Z,101592.09
2019-02-20T18:05:07.942Z,101591.19
2019-02-20T18:07:38.496Z,101596.73
2019-02-20T18:10:10.240Z,101592.95
2019-02-20T18:12:40.854Z,101597.16
2019-02-20T18:15:12.981Z,101598.58
2019-02-20T18:17:43.443Z,101596.40
2019-02-20T18:20:13.854Z,101596.31
2019-02-20T18:22:44.643Z,101602.81
2019-02-20T18:25:15.113Z,101605.42
2019-02-20T18:27:45.654Z,101605.30
2019-02-20T18:30:16.521Z,101600.00
2019-02-20T18:32:47.041Z,101604.05
2019-02-20T18:35:19.108Z,101602.75
2019-02-20T18:37:49.726Z,101605.17
2019-02-20T18:40:20.145Z,101613.76
2019-02-20T18:42:50.718Z,101617.48
2019-02-20T18:45:21.246Z,101617.78
2019-02-20T18:47:51.682Z,101619.08
2019-02-20T18:50:22.121Z,101620.90
2019-02-20T18:52:52.505Z,101620.66
2019-02-20T18:55:23.188Z,101628.89
2019-02-20T18:57:53.642Z,101628.80
2019-02-20T19:00:24.090Z,101633.91
2019-02-20T19:02:54.695Z,101637.81
2019-02-20T19:05:25.107Z,101632.61
2019-02-20T19:07:55.688Z,101636.51
2019-02-20T19:10:29.498Z,101639.89
2019-02-20T19:13:27.581Z,101646.40
2019-02-20T19:16:18.574Z,101645.00
2019-02-20T19:19:02.589Z,101649.00
2019-02-20T19:21:55.853Z,101647.52
2019-02-20T19:24:35.182Z,101640.13
2019-02-20T19:27:33.209Z,101636.34
2019-02-20T19:30:22.056Z,101642.94
2019-02-20T19:33:13.717Z,101642.84
2019-02-20T19:36:15.618Z,101648.34
2019-02-20T19:39:02.691Z,101651.34
2019-02-20T19:41:47.726Z,101650.85
2019-02-20T19:44:24.126Z,101644.65
2019-02-20T19:47:19.308Z,101650.37
2019-02-20T19:50:02.011Z,101651.58
2019-02-20T19:52:49.867Z,101648.45
2019-02-20T19:55:55.830Z,101647.97
2019-02-20T19:58:41.202Z,101658.58
2019-02-20T20:01:23.980Z,101653.38
2019-02-20T20:04:03.549Z,101650.29
2019-02-20T20:06:45.858Z,101653.28
2019-02-20T20:09:31.515Z,101652.09
2019-02-20T20:12:14.092Z,101651.99
2019-02-20T20:15:07.395Z,101650.69
2019-02-20T20:17:51.859Z,101647.61
2019-02-20T20:20:28.405Z,101648.00
2019-02-20T20:23:10.941Z,101653.39
2019-02-20T20:26:13.703Z,101649.30
2019-02-20T20:29:16.209Z,101651.80
2019-02-20T20:31:58.776Z,101655.59
2019-02-20T20:34:53.387Z,101655.59
2019-02-20T20:37:30.223Z,101650.00
2019-02-20T20:40:13.108Z,101654.09
2019-02-20T20:42:52.708Z,101650.87
2019-02-20T20:45:53.944Z,101653.81
2019-02-20T20:48:44.370Z,101655.41
2019-02-20T20:51:34.350Z,101654.50
2019-02-20T20:54:29.071Z,101655.80
2019-02-20T20:59:51.509Z,101659.22
2019-02-20T21:02:25.197Z,101658.11
2019-02-20T21:05:01.406Z,101654.02
2019-02-20T21:07:41.703Z,101650.59
2019-02-20T21:10:33.509Z,101652.91
2019-02-20T21:13:28.559Z,101656.99
2019-02-20T21:16:17.308Z,101649.67
2019-02-20T21:19:00.947Z,101650.59
2019-02-20T21:21:59.140Z,101650.59
2019-02-20T21:24:35.557Z,101650.10
2019-02-20T21:27:28.889Z,101651.07
2019-02-20T21:30:02.595Z,101658.48
2019-02-20T21:33:09.774Z,101661.47
2019-02-20T21:36:11.858Z,101660.50
2019-02-20T21:39:13.107Z,101656.70
2019-02-20T21:42:04.511Z,101658.78
2019-02-20T21:44:46.399Z,101660.80
2019-02-20T21:47:31.917Z,101654.78
2019-02-20T21:50:22.463Z,101661.28
2019-02-20T21:53:12.489Z,101661.99
2019-02-20T21:56:06.988Z,101659.88
2019-02-20T21:58:43.277Z,101658.88
2019-02-20T22:01:38.725Z,101660.17
2019-02-20T22:04:33.834Z,101660.98
2019-02-20T22:07:07.572Z,101667.39
2019-02-20T22:09:57.374Z,101674.28
2019-02-20T22:12:23.025Z,101670.72
2019-02-20T22:14:59.161Z,101665.61
2019-02-20T22:17:58.359Z,101673.80
2019-02-20T22:20:43.781Z,101678.09
2019-02-20T22:23:26.208Z,101680.59
2019-02-20T22:26:10.185Z,101675.39
2019-02-20T22:28:58.928Z,101671.88
2019-02-20T22:32:00.607Z,101676.21
2019-02-20T22:35:37.868Z,101674.30
2019-02-20T22:38:38.979Z,101677.91
2019-02-20T22:41:32.289Z,101670.00
2019-02-20T22:44:31.418Z,101677.80
2019-02-20T22:47:20.360Z,101680.13
2019-02-20T22:50:29.230Z,101677.03
2019-02-20T22:53:26.327Z,101682.14
2019-02-20T22:56:02.697Z,101682.62
2019-02-20T22:58:57.769Z,101680.13
2019-02-20T23:01:34.415Z,101682.33
2019-02-20T23:04:13.912Z,101687.44
2019-02-20T23:06:47.617Z,101683.20
2019-02-20T23:09:52.996Z,101678.91
2019-02-20T23:12:49.131Z,101682.91
2019-02-20T23:15:19.650Z,101680.70
2019-02-20T23:17:50.087Z,101682.42
2019-02-20T23:20:20.454Z,101687.20
2019-02-20T23:22:50.889Z,101686.42
2019-02-20T23:25:21.257Z,101687.11
2019-02-20T23:27:51.755Z,101682.81
2019-02-20T23:30:22.279Z,101682.91
2019-02-20T23:32:52.717Z,101688.92
2019-02-20T23:35:23.226Z,101687.72
2019-02-20T23:37:53.772Z,101683.82
2019-02-20T23:40:24.437Z,101682.09
2019-02-20T23:42:54.767Z,101685.42
2019-02-20T23:45:25.234Z,101677.13
2019-02-20T23:47:55.635Z,101681.81
2019-02-20T23:50:26.084Z,101689.12
2019-02-20T23:52:56.622Z,101684.31
2019-02-20T23:55:26.972Z,101685.13
2019-02-20T23:57:57.505Z,101686.33
